sensor_id;sensor_type;location;lat;lon;timestamp;pressure;altitude;pressure_sealevel;temperature;humidity
56042;BME280;48756;41.374;2.066;2023-04-22T00:02:16;100533.34;;;16.50;70.31
56042;BME280;48756;41.374;2.066;2023-04-22T00:04:43;100532.09;;;16.37;70.79
56042;BME280;48756;41.374;2.066;2023-04-22T00:07:12;100532.97;;;16.37;71.11
56042;BME280;48756;41.374;2.066;2023-04-22T00:09:37;100536.50;;;16.36;70.92
56042;BME280;48756;41.374;2.066;2023-04-22T00:12:03;100535.66;;;16.36;71.51
56042;BME280;48756;41.374;2.066;2023-04-22T00:14:28;100542.94;;;16.28;71.52
56042;BME280;48756;41.374;2.066;2023-04-22T00:16:54;100538.53;;;16.28;70.79
56042;BME280;48756;41.374;2.066;2023-04-22T00:19:19;100543.66;;;16.33;70.67
56042;BME280;48756;41.374;2.066;2023-04-22T00:21:45;100541.94;;;16.32;70.64
56042;BME280;48756;41.374;2.066;2023-04-22T00:24:11;100553.69;;;16.21;71.99
56042;BME280;48756;41.374;2.066;2023-04-22T00:26:36;100554.59;;;15.96;72.64
56042;BME280;48756;41.374;2.066;2023-04-22T00:29:01;100558.25;;;15.91;73.15
56042;BME280;48756;41.374;2.066;2023-04-22T00:31:27;100565.38;;;15.88;73.23
56042;BME280;48756;41.374;2.066;2023-04-22T00:33:52;100555.19;;;16.04;72.42
56042;BME280;48756;41.374;2.066;2023-04-22T00:36:17;100557.91;;;16.01;72.35
56042;BME280;48756;41.374;2.066;2023-04-22T00:38:45;100558.66;;;16.04;72.09
56042;BME280;48756;41.374;2.066;2023-04-22T00:41:12;100559.75;;;15.99;72.71
56042;BME280;48756;41.374;2.066;2023-04-22T00:43:37;100562.22;;;16.03;72.67
56042;BME280;48756;41.374;2.066;2023-04-22T00:46:03;100559.53;;;16.05;71.78
56042;BME280;48756;41.374;2.066;2023-04-22T00:48:28;100555.13;;;16.05;72.66
56042;BME280;48756;41.374;2.066;2023-04-22T00:50:53;100546.66;;;15.97;72.52
56042;BME280;48756;41.374;2.066;2023-04-22T00:53:19;100561.13;;;15.84;72.98
56042;BME280;48756;41.374;2.066;2023-04-22T00:55:44;100555.97;;;15.81;73.87
56042;BME280;48756;41.374;2.066;2023-04-22T00:58:09;100562.88;;;15.85;73.52
56042;BME280;48756;41.374;2.066;2023-04-22T01:00:35;100551.91;;;15.97;72.81
56042;BME280;48756;41.374;2.066;2023-04-22T01:03:00;100559.72;;;15.74;73.98
56042;BME280;48756;41.374;2.066;2023-04-22T01:05:26;100559.97;;;15.92;74.32
56042;BME280;48756;41.374;2.066;2023-04-22T01:07:52;100563.41;;;15.95;73.80
56042;BME280;48756;41.374;2.066;2023-04-22T01:10:18;100555.97;;;16.06;72.66
56042;BME280;48756;41.374;2.066;2023-04-22T01:12:44;100560.72;;;15.96;73.97
56042;BME280;48756;41.374;2.066;2023-04-22T01:15:09;100562.53;;;15.94;73.88
56042;BME280;48756;41.374;2.066;2023-04-22T01:17:35;100565.44;;;15.86;73.48
56042;BME280;48756;41.374;2.066;2023-04-22T01:20:00;100567.16;;;15.87;73.57
56042;BME280;48756;41.374;2.066;2023-04-22T01:22:28;100562.00;;;15.84;73.39
56042;BME280;48756;41.374;2.066;2023-04-22T01:24:55;100561.13;;;15.84;73.49
56042;BME280;48756;41.374;2.066;2023-04-22T01:27:20;100554.72;;;15.92;73.80
56042;BME280;48756;41.374;2.066;2023-04-22T01:29:46;100546.56;;;16.00;73.22
56042;BME280;48756;41.374;2.066;2023-04-22T01:32:11;100556.91;;;16.05;72.80
56042;BME280;48756;41.374;2.066;2023-04-22T01:34:37;100551.50;;;16.09;72.83
56042;BME280;48756;41.374;2.066;2023-04-22T01:37:02;100554.34;;;15.77;73.75
56042;BME280;48756;41.374;2.066;2023-04-22T01:39:28;100559.94;;;15.68;74.33
56042;BME280;48756;41.374;2.066;2023-04-22T01:41:53;100546.91;;;15.65;74.80
56042;BME280;48756;41.374;2.066;2023-04-22T01:44:20;100558.53;;;15.56;74.84
56042;BME280;48756;41.374;2.066;2023-04-22T01:46:45;100549.16;;;15.75;74.83
56042;BME280;48756;41.374;2.066;2023-04-22T01:49:11;100547.69;;;15.93;73.68
56042;BME280;48756;41.374;2.066;2023-04-22T01:51:39;100536.91;;;16.01;73.81
56042;BME280;48756;41.374;2.066;2023-04-22T01:54:04;100547.53;;;15.98;73.77
56042;BME280;48756;41.374;2.066;2023-04-22T01:56:30;100547.91;;;15.87;73.74
56042;BME280;48756;41.374;2.066;2023-04-22T01:58:55;100549.00;;;15.80;73.99
56042;BME280;48756;41.374;2.066;2023-04-22T02:01:20;100551.56;;;15.81;74.38
56042;BME280;48756;41.374;2.066;2023-04-22T02:03:46;100554.16;;;15.83;73.98
56042;BME280;48756;41.374;2.066;2023-04-22T02:06:11;100562.97;;;15.54;74.96
56042;BME280;48756;41.374;2.066;2023-04-22T02:08:36;100557.53;;;15.60;75.71
56042;BME280;48756;41.374;2.066;2023-04-22T02:11:02;100554.22;;;15.53;75.61
56042;BME280;48756;41.374;2.066;2023-04-22T02:13:35;100558.69;;;15.78;75.02
56042;BME280;48756;41.374;2.066;2023-04-22T02:16:01;100558.47;;;15.57;75.54
56042;BME280;48756;41.374;2.066;2023-04-22T02:18:26;100567.13;;;15.61;75.05
56042;BME280;48756;41.374;2.066;2023-04-22T02:20:52;100571.84;;;15.78;75.35
56042;BME280;48756;41.374;2.066;2023-04-22T02:23:17;100572.34;;;15.89;74.52
56042;BME280;48756;41.374;2.066;2023-04-22T02:25:47;100568.88;;;15.88;74.23
56042;BME280;48756;41.374;2.066;2023-04-22T02:28:12;100574.06;;;15.90;74.03
56042;BME280;48756;41.374;2.066;2023-04-22T02:30:37;100575.78;;;15.91;74.77
56042;BME280;48756;41.374;2.066;2023-04-22T02:33:02;100570.38;;;15.96;75.43
56042;BME280;48756;41.374;2.066;2023-04-22T02:35:28;100571.44;;;15.90;73.58
56042;BME280;48756;41.374;2.066;2023-04-22T02:37:53;100577.34;;;15.97;73.98
56042;BME280;48756;41.374;2.066;2023-04-22T02:40:19;100574.66;;;15.98;74.19
56042;BME280;48756;41.374;2.066;2023-04-22T02:42:44;100565.84;;;15.99;73.63
56042;BME280;48756;41.374;2.066;2023-04-22T02:45:12;100561.56;;;15.97;74.25
56042;BME280;48756;41.374;2.066;2023-04-22T02:47:38;100569.41;;;15.98;74.03
56042;BME280;48756;41.374;2.066;2023-04-22T02:50:06;100573.16;;;15.91;73.46
56042;BME280;48756;41.374;2.066;2023-04-22T02:52:32;100581.28;;;15.83;74.47
56042;BME280;48756;41.374;2.066;2023-04-22T02:54:57;100574.31;;;15.82;74.63
56042;BME280;48756;41.374;2.066;2023-04-22T02:57:23;100580.28;;;15.87;74.50
56042;BME280;48756;41.374;2.066;2023-04-22T02:59:48;100578.41;;;15.91;74.66
56042;BME280;48756;41.374;2.066;2023-04-22T03:02:13;100582.91;;;15.87;74.25
56042;BME280;48756;41.374;2.066;2023-04-22T03:04:38;100577.72;;;15.86;74.24
56042;BME280;48756;41.374;2.066;2023-04-22T03:07:04;100581.59;;;15.74;75.05
56042;BME280;48756;41.374;2.066;2023-04-22T03:09:30;100590.59;;;15.67;74.89
56042;BME280;48756;41.374;2.066;2023-04-22T03:11:55;100590.94;;;15.55;75.31
56042;BME280;48756;41.374;2.066;2023-04-22T03:14:21;100591.03;;;15.52;74.07
56042;BME280;48756;41.374;2.066;2023-04-22T03:16:46;100592.81;;;15.51;75.82
56042;BME280;48756;41.374;2.066;2023-04-22T03:19:11;100589.97;;;15.57;74.76
56042;BME280;48756;41.374;2.066;2023-04-22T03:21:37;100586.19;;;15.68;74.45
56042;BME280;48756;41.374;2.066;2023-04-22T03:24:02;100588.03;;;15.66;75.11
56042;BME280;48756;41.374;2.066;2023-04-22T03:26:27;100584.38;;;15.70;74.92
56042;BME280;48756;41.374;2.066;2023-04-22T03:28:53;100579.88;;;15.73;75.15
56042;BME280;48756;41.374;2.066;2023-04-22T03:31:18;100588.94;;;15.65;75.66
56042;BME280;48756;41.374;2.066;2023-04-22T03:33:43;100579.28;;;15.65;75.37
56042;BME280;48756;41.374;2.066;2023-04-22T03:36:08;100590.59;;;15.67;75.26
56042;BME280;48756;41.374;2.066;2023-04-22T03:38:34;100585.13;;;15.73;75.01
56042;BME280;48756;41.374;2.066;2023-04-22T03:40:59;100589.78;;;15.91;74.88
56042;BME280;48756;41.374;2.066;2023-04-22T03:43:25;100587.31;;;15.87;74.43
56042;BME280;48756;41.374;2.066;2023-04-22T03:45:50;100581.50;;;15.77;75.04
56042;BME280;48756;41.374;2.066;2023-04-22T03:48:15;100583.97;;;15.82;74.96
56042;BME280;48756;41.374;2.066;2023-04-22T03:50:41;100585.50;;;15.89;75.57
56042;BME280;48756;41.374;2.066;2023-04-22T03:53:06;100590.19;;;15.79;75.29
56042;BME280;48756;41.374;2.066;2023-04-22T03:55:31;100587.53;;;15.79;76.21
56042;BME280;48756;41.374;2.066;2023-04-22T03:57:57;100587.22;;;15.64;77.31
56042;BME280;48756;41.374;2.066;2023-04-22T04:00:22;100590.53;;;15.41;79.40
56042;BME280;48756;41.374;2.066;2023-04-22T04:02:48;100596.22;;;15.27;80.51
56042;BME280;48756;41.374;2.066;2023-04-22T04:05:13;100584.03;;;15.52;79.38
56042;BME280;48756;41.374;2.066;2023-04-22T04:07:38;100588.84;;;15.68;78.21
56042;BME280;48756;41.374;2.066;2023-04-22T04:10:04;100585.25;;;15.70;79.08
56042;BME280;48756;41.374;2.066;2023-04-22T04:12:30;100584.94;;;15.79;78.62
56042;BME280;48756;41.374;2.066;2023-04-22T04:14:55;100576.69;;;15.90;78.60
56042;BME280;48756;41.374;2.066;2023-04-22T04:17:20;100575.16;;;15.83;78.26
56042;BME280;48756;41.374;2.066;2023-04-22T04:19:51;100572.78;;;16.02;77.82
56042;BME280;48756;41.374;2.066;2023-04-22T04:22:17;100572.88;;;15.99;76.98
56042;BME280;48756;41.374;2.066;2023-04-22T04:24:42;100579.06;;;15.98;77.93
56042;BME280;48756;41.374;2.066;2023-04-22T04:27:08;100572.84;;;16.00;78.04
56042;BME280;48756;41.374;2.066;2023-04-22T04:29:33;100575.50;;;15.99;78.08
56042;BME280;48756;41.374;2.066;2023-04-22T04:31:59;100581.25;;;15.85;78.34
56042;BME280;48756;41.374;2.066;2023-04-22T04:34:24;100577.78;;;15.84;78.33
56042;BME280;48756;41.374;2.066;2023-04-22T04:36:49;100572.69;;;15.78;79.15
56042;BME280;48756;41.374;2.066;2023-04-22T04:39:15;100574.31;;;15.82;78.11
56042;BME280;48756;41.374;2.066;2023-04-22T04:41:43;100565.13;;;15.69;78.69
56042;BME280;48756;41.374;2.066;2023-04-22T04:44:09;100573.13;;;15.66;79.09
56042;BME280;48756;41.374;2.066;2023-04-22T04:46:35;100569.38;;;15.73;78.96
56042;BME280;48756;41.374;2.066;2023-04-22T04:49:02;100561.69;;;15.67;79.58
56042;BME280;48756;41.374;2.066;2023-04-22T04:51:28;100556.63;;;15.61;79.43
56042;BME280;48756;41.374;2.066;2023-04-22T04:53:54;100559.38;;;15.56;80.66
56042;BME280;48756;41.374;2.066;2023-04-22T04:56:19;100563.66;;;15.60;81.06
56042;BME280;48756;41.374;2.066;2023-04-22T04:58:44;100561.44;;;15.75;80.23
56042;BME280;48756;41.374;2.066;2023-04-22T05:01:10;100564.97;;;15.74;80.55
56042;BME280;48756;41.374;2.066;2023-04-22T05:03:35;100571.59;;;15.57;81.50
56042;BME280;48756;41.374;2.066;2023-04-22T05:06:01;100570.53;;;15.65;82.15
56042;BME280;48756;41.374;2.066;2023-04-22T05:08:27;100569.75;;;15.61;81.48
56042;BME280;48756;41.374;2.066;2023-04-22T05:10:52;100563.69;;;15.59;82.15
56042;BME280;48756;41.374;2.066;2023-04-22T05:13:17;100556.59;;;15.63;82.54
56042;BME280;48756;41.374;2.066;2023-04-22T05:15:43;100566.09;;;15.67;82.81
56042;BME280;48756;41.374;2.066;2023-04-22T05:18:08;100564.09;;;15.47;83.25
56042;BME280;48756;41.374;2.066;2023-04-22T05:20:33;100569.63;;;15.38;83.86
56042;BME280;48756;41.374;2.066;2023-04-22T05:22:59;100562.00;;;15.56;82.73
56042;BME280;48756;41.374;2.066;2023-04-22T05:25:24;100568.84;;;15.64;81.84
56042;BME280;48756;41.374;2.066;2023-04-22T05:27:49;100569.59;;;15.67;80.85
56042;BME280;48756;41.374;2.066;2023-04-22T05:30:15;100576.44;;;15.71;81.00
56042;BME280;48756;41.374;2.066;2023-04-22T05:32:40;100579.53;;;15.56;81.52
56042;BME280;48756;41.374;2.066;2023-04-22T05:35:05;100570.25;;;15.46;80.74
56042;BME280;48756;41.374;2.066;2023-04-22T05:37:31;100570.00;;;15.53;80.18
56042;BME280;48756;41.374;2.066;2023-04-22T05:39:56;100587.34;;;15.59;79.45
56042;BME280;48756;41.374;2.066;2023-04-22T05:42:21;100588.47;;;15.78;78.49
56042;BME280;48756;41.374;2.066;2023-04-22T05:44:47;100581.63;;;15.99;77.07
56042;BME280;48756;41.374;2.066;2023-04-22T05:47:12;100585.78;;;15.80;77.97
56042;BME280;48756;41.374;2.066;2023-04-22T05:49:37;100593.22;;;15.93;76.84
56042;BME280;48756;41.374;2.066;2023-04-22T05:52:03;100586.84;;;15.74;76.70
56042;BME280;48756;41.374;2.066;2023-04-22T05:54:28;100588.19;;;15.59;76.27
56042;BME280;48756;41.374;2.066;2023-04-22T05:56:54;100586.44;;;15.60;76.21
56042;BME280;48756;41.374;2.066;2023-04-22T05:59:19;100592.13;;;15.46;76.56
56042;BME280;48756;41.374;2.066;2023-04-22T06:01:45;100601.31;;;15.59;77.24
56042;BME280;48756;41.374;2.066;2023-04-22T06:04:10;100594.94;;;15.68;77.20
56042;BME280;48756;41.374;2.066;2023-04-22T06:06:36;100601.00;;;15.70;77.27
56042;BME280;48756;41.374;2.066;2023-04-22T06:09:01;100594.78;;;15.99;76.49
56042;BME280;48756;41.374;2.066;2023-04-22T06:11:27;100588.19;;;16.12;76.10
56042;BME280;48756;41.374;2.066;2023-04-22T06:13:53;100600.28;;;15.91;78.13
56042;BME280;48756;41.374;2.066;2023-04-22T06:16:18;100592.09;;;16.01;79.57
56042;BME280;48756;41.374;2.066;2023-04-22T06:18:44;100588.88;;;15.92;79.90
56042;BME280;48756;41.374;2.066;2023-04-22T06:21:09;100591.50;;;15.92;79.90
56042;BME280;48756;41.374;2.066;2023-04-22T06:23:34;100590.72;;;16.15;79.71
56042;BME280;48756;41.374;2.066;2023-04-22T06:26:00;100604.88;;;16.11;80.44
56042;BME280;48756;41.374;2.066;2023-04-22T06:28:26;100596.41;;;15.77;78.83
56042;BME280;48756;41.374;2.066;2023-04-22T06:30:51;100595.53;;;15.76;79.39
56042;BME280;48756;41.374;2.066;2023-04-22T06:33:16;100587.53;;;16.06;76.91
56042;BME280;48756;41.374;2.066;2023-04-22T06:35:42;100592.41;;;16.41;75.62
56042;BME280;48756;41.374;2.066;2023-04-22T06:38:07;100591.34;;;16.47;74.80
56042;BME280;48756;41.374;2.066;2023-04-22T06:40:32;100600.78;;;16.28;75.54
56042;BME280;48756;41.374;2.066;2023-04-22T06:42:58;100607.19;;;16.45;73.39
56042;BME280;48756;41.374;2.066;2023-04-22T06:45:24;100602.22;;;16.61;73.18
56042;BME280;48756;41.374;2.066;2023-04-22T06:47:51;100597.31;;;17.00;70.84
56042;BME280;48756;41.374;2.066;2023-04-22T06:50:16;100599.16;;;17.20;70.16
56042;BME280;48756;41.374;2.066;2023-04-22T06:52:42;100593.38;;;17.10;70.12
56042;BME280;48756;41.374;2.066;2023-04-22T06:55:08;100596.63;;;17.17;70.33
56042;BME280;48756;41.374;2.066;2023-04-22T06:57:33;100596.25;;;17.04;71.49
56042;BME280;48756;41.374;2.066;2023-04-22T06:59:59;100592.41;;;17.13;70.33
56042;BME280;48756;41.374;2.066;2023-04-22T07:02:24;100591.66;;;17.09;71.76
56042;BME280;48756;41.374;2.066;2023-04-22T07:04:49;100596.06;;;17.09;71.97
56042;BME280;48756;41.374;2.066;2023-04-22T07:07:15;100598.22;;;16.99;72.37
56042;BME280;48756;41.374;2.066;2023-04-22T07:09:40;100594.06;;;17.59;70.27
56042;BME280;48756;41.374;2.066;2023-04-22T07:12:05;100595.81;;;18.02;68.34
56042;BME280;48756;41.374;2.066;2023-04-22T07:14:31;100596.66;;;17.83;69.38
56042;BME280;48756;41.374;2.066;2023-04-22T07:16:57;100599.78;;;17.92;69.56
56042;BME280;48756;41.374;2.066;2023-04-22T07:19:23;100602.25;;;17.75;69.47
56042;BME280;48756;41.374;2.066;2023-04-22T07:21:48;100598.22;;;17.65;70.24
56042;BME280;48756;41.374;2.066;2023-04-22T07:24:13;100597.50;;;17.61;69.87
56042;BME280;48756;41.374;2.066;2023-04-22T07:26:40;100591.69;;;17.97;69.41
56042;BME280;48756;41.374;2.066;2023-04-22T07:29:06;100595.69;;;18.26;69.01
56042;BME280;48756;41.374;2.066;2023-04-22T07:31:32;100583.22;;;18.70;67.53
56042;BME280;48756;41.374;2.066;2023-04-22T07:33:57;100588.66;;;18.86;66.90
56042;BME280;48756;41.374;2.066;2023-04-22T07:36:23;100585.00;;;18.88;66.75
56042;BME280;48756;41.374;2.066;2023-04-22T07:38:48;100588.28;;;18.75;67.26
56042;BME280;48756;41.374;2.066;2023-04-22T07:41:13;100585.00;;;18.88;66.66
56042;BME280;48756;41.374;2.066;2023-04-22T07:43:39;100588.09;;;18.79;66.30
56042;BME280;48756;41.374;2.066;2023-04-22T07:46:04;100589.16;;;19.13;66.32
56042;BME280;48756;41.374;2.066;2023-04-22T07:48:29;100589.63;;;19.40;64.00
56042;BME280;48756;41.374;2.066;2023-04-22T07:50:55;100593.28;;;19.37;64.41
56042;BME280;48756;41.374;2.066;2023-04-22T07:53:20;100593.41;;;19.34;62.70
56042;BME280;48756;41.374;2.066;2023-04-22T07:55:45;100588.38;;;19.66;61.85
56042;BME280;48756;41.374;2.066;2023-04-22T07:58:11;100590.75;;;19.53;62.39
56042;BME280;48756;41.374;2.066;2023-04-22T08:00:36;100583.88;;;19.85;61.17
56042;BME280;48756;41.374;2.066;2023-04-22T08:03:02;100576.75;;;20.22;60.31
56042;BME280;48756;41.374;2.066;2023-04-22T08:05:27;100580.19;;;20.41;60.36
56042;BME280;48756;41.374;2.066;2023-04-22T08:07:53;100571.44;;;20.22;60.54
56042;BME280;48756;41.374;2.066;2023-04-22T08:10:18;100572.47;;;20.19;60.21
56042;BME280;48756;41.374;2.066;2023-04-22T08:12:43;100578.66;;;19.66;62.56
56042;BME280;48756;41.374;2.066;2023-04-22T08:15:09;100570.34;;;20.26;60.00
56042;BME280;48756;41.374;2.066;2023-04-22T08:17:34;100581.63;;;20.46;60.45
56042;BME280;48756;41.374;2.066;2023-04-22T08:20:00;100575.31;;;20.82;58.49
56042;BME280;48756;41.374;2.066;2023-04-22T08:22:25;100578.06;;;20.47;59.42
56042;BME280;48756;41.374;2.066;2023-04-22T08:24:54;100577.06;;;20.15;59.92
56042;BME280;48756;41.374;2.066;2023-04-22T08:27:22;100579.00;;;19.95;61.28
56042;BME280;48756;41.374;2.066;2023-04-22T08:29:47;100584.19;;;20.13;59.83
56042;BME280;48756;41.374;2.066;2023-04-22T08:32:13;100576.19;;;20.49;59.93
56042;BME280;48756;41.374;2.066;2023-04-22T08:34:38;100575.19;;;21.32;57.36
56042;BME280;48756;41.374;2.066;2023-04-22T08:37:03;100575.06;;;21.50;55.88
56042;BME280;48756;41.374;2.066;2023-04-22T08:39:29;100575.94;;;21.50;56.18
56042;BME280;48756;41.374;2.066;2023-04-22T08:41:54;100573.56;;;21.30;56.94
56042;BME280;48756;41.374;2.066;2023-04-22T08:44:22;100570.84;;;21.77;54.82
56042;BME280;48756;41.374;2.066;2023-04-22T08:46:47;100578.00;;;21.45;55.17
56042;BME280;48756;41.374;2.066;2023-04-22T08:49:15;100576.91;;;21.79;55.23
56042;BME280;48756;41.374;2.066;2023-04-22T08:51:41;100566.53;;;22.77;53.11
56042;BME280;48756;41.374;2.066;2023-04-22T08:54:07;100573.28;;;22.83;52.23
56042;BME280;48756;41.374;2.066;2023-04-22T08:56:33;100572.06;;;22.88;51.15
56042;BME280;48756;41.374;2.066;2023-04-22T08:58:58;100569.69;;;22.84;52.50
56042;BME280;48756;41.374;2.066;2023-04-22T09:01:24;100568.28;;;23.34;51.00
56042;BME280;48756;41.374;2.066;2023-04-22T09:03:50;100565.25;;;23.26;50.48
56042;BME280;48756;41.374;2.066;2023-04-22T09:06:17;100564.91;;;23.71;48.39
56042;BME280;48756;41.374;2.066;2023-04-22T09:08:44;100562.47;;;23.00;50.54
56042;BME280;48756;41.374;2.066;2023-04-22T09:11:10;100564.69;;;23.62;48.64
56042;BME280;48756;41.374;2.066;2023-04-22T09:13:35;100566.72;;;23.17;50.11
56042;BME280;48756;41.374;2.066;2023-04-22T09:16:01;100569.53;;;23.82;47.95
56042;BME280;48756;41.374;2.066;2023-04-22T09:18:27;100560.91;;;23.78;48.42
56042;BME280;48756;41.374;2.066;2023-04-22T09:20:53;100565.63;;;23.61;47.82
56042;BME280;48756;41.374;2.066;2023-04-22T09:23:19;100562.22;;;24.11;47.73
56042;BME280;48756;41.374;2.066;2023-04-22T09:25:44;100570.28;;;23.97;48.19
56042;BME280;48756;41.374;2.066;2023-04-22T09:28:11;100553.19;;;24.13;47.06
56042;BME280;48756;41.374;2.066;2023-04-22T09:30:36;100557.66;;;24.26;47.72
56042;BME280;48756;41.374;2.066;2023-04-22T09:33:05;100559.34;;;24.01;46.41
56042;BME280;48756;41.374;2.066;2023-04-22T09:37:57;100571.50;;;23.51;47.83
56042;BME280;48756;41.374;2.066;2023-04-22T09:40:23;100572.56;;;23.76;47.84
56042;BME280;48756;41.374;2.066;2023-04-22T09:42:51;100572.88;;;23.17;48.73
56042;BME280;48756;41.374;2.066;2023-04-22T09:45:25;100573.81;;;23.97;48.64
56042;BME280;48756;41.374;2.066;2023-04-22T09:47:52;100559.28;;;24.28;46.50
56042;BME280;48756;41.374;2.066;2023-04-22T09:50:21;100563.44;;;24.32;46.54
56042;BME280;48756;41.374;2.066;2023-04-22T09:52:55;100569.56;;;24.07;46.49
56042;BME280;48756;41.374;2.066;2023-04-22T09:55:21;100581.91;;;23.42;47.54
56042;BME280;48756;41.374;2.066;2023-04-22T09:57:49;100575.00;;;23.66;47.78
56042;BME280;48756;41.374;2.066;2023-04-22T10:00:15;100574.50;;;23.74;47.60
56042;BME280;48756;41.374;2.066;2023-04-22T10:02:40;100568.84;;;23.66;48.36
56042;BME280;48756;41.374;2.066;2023-04-22T10:05:06;100565.75;;;23.59;48.16
56042;BME280;48756;41.374;2.066;2023-04-22T10:07:31;100560.56;;;24.35;46.64
56042;BME280;48756;41.374;2.066;2023-04-22T10:09:57;100564.41;;;24.31;46.13
56042;BME280;48756;41.374;2.066;2023-04-22T10:12:22;100553.53;;;24.60;45.38
56042;BME280;48756;41.374;2.066;2023-04-22T10:14:48;100560.13;;;24.54;45.66
56042;BME280;48756;41.374;2.066;2023-04-22T10:17:13;100567.03;;;24.06;46.73
56042;BME280;48756;41.374;2.066;2023-04-22T10:19:39;100567.66;;;23.57;46.95
56042;BME280;48756;41.374;2.066;2023-04-22T10:22:05;100574.22;;;23.78;47.18
56042;BME280;48756;41.374;2.066;2023-04-22T10:24:34;100569.91;;;24.03;48.16
56042;BME280;48756;41.374;2.066;2023-04-22T10:27:02;100559.47;;;24.25;47.60
56042;BME280;48756;41.374;2.066;2023-04-22T10:29:34;100565.25;;;24.70;46.22
56042;BME280;48756;41.374;2.066;2023-04-22T10:34:35;100559.19;;;24.68;45.67
56042;BME280;48756;41.374;2.066;2023-04-22T10:37:06;100553.06;;;25.28;43.56
56042;BME280;48756;41.374;2.066;2023-04-22T10:39:33;100561.81;;;24.81;43.47
56042;BME280;48756;41.374;2.066;2023-04-22T10:44:27;100551.88;;;24.95;44.09
56042;BME280;48756;41.374;2.066;2023-04-22T10:46:56;100549.66;;;25.26;44.48
56042;BME280;48756;41.374;2.066;2023-04-22T10:49:23;100548.94;;;25.11;42.65
56042;BME280;48756;41.374;2.066;2023-04-22T10:51:49;100549.28;;;25.67;44.02
56042;BME280;48756;41.374;2.066;2023-04-22T10:57:05;100558.47;;;25.39;44.00
56042;BME280;48756;41.374;2.066;2023-04-22T10:59:32;100560.03;;;25.65;44.27
56042;BME280;48756;41.374;2.066;2023-04-22T11:02:01;100550.22;;;25.66;43.66
56042;BME280;48756;41.374;2.066;2023-04-22T11:04:26;100553.13;;;25.63;45.10
56042;BME280;48756;41.374;2.066;2023-04-22T11:09:39;100538.75;;;25.53;42.99
56042;BME280;48756;41.374;2.066;2023-04-22T11:14:48;100541.25;;;26.71;41.08
56042;BME280;48756;41.374;2.066;2023-04-22T11:17:14;100540.47;;;26.69;42.20
56042;BME280;48756;41.374;2.066;2023-04-22T11:19:39;100546.81;;;25.40;42.34
56042;BME280;48756;41.374;2.066;2023-04-22T11:22:04;100537.28;;;25.25;43.10
56042;BME280;48756;41.374;2.066;2023-04-22T11:24:30;100538.00;;;25.75;41.56
56042;BME280;48756;41.374;2.066;2023-04-22T11:26:55;100534.47;;;25.15;43.61
56042;BME280;48756;41.374;2.066;2023-04-22T11:29:21;100537.78;;;25.30;43.27
56042;BME280;48756;41.374;2.066;2023-04-22T11:31:47;100543.09;;;25.06;43.71
56042;BME280;48756;41.374;2.066;2023-04-22T11:34:13;100531.69;;;24.55;45.50
56042;BME280;48756;41.374;2.066;2023-04-22T11:36:41;100538.75;;;24.92;44.81
56042;BME280;48756;41.374;2.066;2023-04-22T11:39:07;100539.56;;;25.18;44.19
56042;BME280;48756;41.374;2.066;2023-04-22T11:41:32;100541.38;;;24.56;45.24
56042;BME280;48756;41.374;2.066;2023-04-22T11:43:59;100538.50;;;24.71;45.20
56042;BME280;48756;41.374;2.066;2023-04-22T11:46:28;100526.19;;;24.82;46.10
56042;BME280;48756;41.374;2.066;2023-04-22T11:49:09;100535.00;;;25.08;45.53
56042;BME280;48756;41.374;2.066;2023-04-22T11:51:34;100527.44;;;24.52;47.19
56042;BME280;48756;41.374;2.066;2023-04-22T11:54:00;100532.69;;;25.51;46.79
56042;BME280;48756;41.374;2.066;2023-04-22T11:56:25;100529.56;;;25.81;45.28
56042;BME280;48756;41.374;2.066;2023-04-22T11:58:52;100533.16;;;26.15;44.29
56042;BME280;48756;41.374;2.066;2023-04-22T12:01:17;100527.13;;;26.35;43.47
56042;BME280;48756;41.374;2.066;2023-04-22T12:03:42;100523.25;;;25.82;44.70
56042;BME280;48756;41.374;2.066;2023-04-22T12:06:07;100528.59;;;25.82;44.16
56042;BME280;48756;41.374;2.066;2023-04-22T12:08:36;100524.22;;;26.38;42.90
56042;BME280;48756;41.374;2.066;2023-04-22T12:11:06;100519.34;;;26.66;41.47
56042;BME280;48756;41.374;2.066;2023-04-22T12:16:04;100518.97;;;25.79;43.16
56042;BME280;48756;41.374;2.066;2023-04-22T12:18:33;100517.81;;;25.94;43.76
56042;BME280;48756;41.374;2.066;2023-04-22T12:23:39;100518.50;;;26.76;40.68
56042;BME280;48756;41.374;2.066;2023-04-22T12:26:05;100525.69;;;25.96;41.94
56042;BME280;48756;41.374;2.066;2023-04-22T12:28:30;100529.00;;;24.67;45.29
56042;BME280;48756;41.374;2.066;2023-04-22T12:30:55;100523.44;;;25.20;44.25
56042;BME280;48756;41.374;2.066;2023-04-22T12:33:21;100522.19;;;25.13;45.38
56042;BME280;48756;41.374;2.066;2023-04-22T12:35:46;100523.03;;;25.85;43.76
56042;BME280;48756;41.374;2.066;2023-04-22T12:38:14;100523.81;;;25.02;44.83
56042;BME280;48756;41.374;2.066;2023-04-22T12:40:40;100520.19;;;25.03;45.04
56042;BME280;48756;41.374;2.066;2023-04-22T12:43:05;100528.81;;;25.31;44.94
56042;BME280;48756;41.374;2.066;2023-04-22T12:45:30;100521.31;;;25.84;42.29
56042;BME280;48756;41.374;2.066;2023-04-22T12:47:56;100524.03;;;26.17;42.64
56042;BME280;48756;41.374;2.066;2023-04-22T12:50:21;100518.75;;;26.62;41.35
56042;BME280;48756;41.374;2.066;2023-04-22T12:52:47;100509.97;;;26.27;42.41
56042;BME280;48756;41.374;2.066;2023-04-22T12:55:12;100504.06;;;26.57;40.63
56042;BME280;48756;41.374;2.066;2023-04-22T12:57:37;100504.66;;;26.60;40.87
56042;BME280;48756;41.374;2.066;2023-04-22T13:00:03;100506.47;;;26.82;40.94
56042;BME280;48756;41.374;2.066;2023-04-22T13:02:30;100509.34;;;26.90;40.99
56042;BME280;48756;41.374;2.066;2023-04-22T13:04:56;100497.69;;;26.24;41.81